sensor_id;sensor_type;location;lat;lon;timestamp;P1;durP1;ratioP1;P2;durP2;ratioP2
73337;SDS011;61575;49.908;35.556;2023-04-06T00:01:24;10.32;;;4.90;;
73337;SDS011;61575;49.908;35.556;2023-04-06T00:04:26;11.75;;;5.40;;
73337;SDS011;61575;49.908;35.556;2023-04-06T00:07:28;7.97;;;4.47;;
73337;SDS011;61575;49.908;35.556;2023-04-06T00:13:33;9.98;;;4.50;;
73337;SDS011;61575;49.908;35.556;2023-04-06T00:16:35;10.07;;;5.00;;
73337;SDS011;61575;49.908;35.556;2023-04-06T00:19:37;8.77;;;4.57;;
73337;SDS011;61575;49.908;35.556;2023-04-06T00:22:39;11.53;;;4.50;;
73337;SDS011;61575;49.908;35.556;2023-04-06T00:25:41;9.03;;;4.67;;
73337;SDS011;61575;49.908;35.556;2023-04-06T00:28:43;9.80;;;4.67;;
73337;SDS011;61575;49.908;35.556;2023-04-06T00:31:45;11.33;;;5.20;;
73337;SDS011;61575;49.908;35.556;2023-04-06T00:34:47;11.23;;;4.85;;
73337;SDS011;61575;49.908;35.556;2023-04-06T00:37:49;11.67;;;4.93;;
73337;SDS011;61575;49.908;35.556;2023-04-06T00:40:51;8.80;;;4.50;;
73337;SDS011;61575;49.908;35.556;2023-04-06T00:43:53;8.83;;;4.30;;
73337;SDS011;61575;49.908;35.556;2023-04-06T00:46:56;14.05;;;4.70;;
73337;SDS011;61575;49.908;35.556;2023-04-06T00:49:58;12.07;;;4.32;;
73337;SDS011;61575;49.908;35.556;2023-04-06T00:53:00;12.73;;;4.70;;
73337;SDS011;61575;49.908;35.556;2023-04-06T00:56:02;10.18;;;4.60;;
73337;SDS011;61575;49.908;35.556;2023-04-06T00:59:15;11.15;;;4.40;;
73337;SDS011;61575;49.908;35.556;2023-04-06T01:02:17;11.18;;;4.45;;
73337;SDS011;61575;49.908;35.556;2023-04-06T01:05:23;9.98;;;4.30;;
73337;SDS011;61575;49.908;35.556;2023-04-06T01:08:28;11.05;;;4.28;;
73337;SDS011;61575;49.908;35.556;2023-04-06T01:11:44;10.50;;;4.22;;
73337;SDS011;61575;49.908;35.556;2023-04-06T01:14:51;12.50;;;4.43;;
73337;SDS011;61575;49.908;35.556;2023-04-06T01:17:53;10.20;;;4.47;;
73337;SDS011;61575;49.908;35.556;2023-04-06T01:20:55;10.73;;;4.43;;
73337;SDS011;61575;49.908;35.556;2023-04-06T01:24:00;10.23;;;4.47;;
73337;SDS011;61575;49.908;35.556;2023-04-06T01:27:09;11.00;;;4.18;;
73337;SDS011;61575;49.908;35.556;2023-04-06T01:30:30;7.85;;;4.22;;
73337;SDS011;61575;49.908;35.556;2023-04-06T01:33:41;13.32;;;4.15;;
73337;SDS011;61575;49.908;35.556;2023-04-06T01:36:47;8.93;;;4.53;;
73337;SDS011;61575;49.908;35.556;2023-04-06T01:40:02;10.68;;;4.50;;
73337;SDS011;61575;49.908;35.556;2023-04-06T01:43:15;9.38;;;4.47;;
73337;SDS011;61575;49.908;35.556;2023-04-06T01:46:36;10.45;;;4.47;;
73337;SDS011;61575;49.908;35.556;2023-04-06T01:49:40;10.60;;;4.30;;
73337;SDS011;61575;49.908;35.556;2023-04-06T01:52:43;9.75;;;4.43;;
73337;SDS011;61575;49.908;35.556;2023-04-06T01:55:46;11.93;;;4.40;;
73337;SDS011;61575;49.908;35.556;2023-04-06T01:59:03;10.73;;;4.30;;
73337;SDS011;61575;49.908;35.556;2023-04-06T02:02:11;7.50;;;3.75;;
73337;SDS011;61575;49.908;35.556;2023-04-06T02:05:20;8.48;;;4.53;;
73337;SDS011;61575;49.908;35.556;2023-04-06T02:08:24;10.35;;;4.60;;
73337;SDS011;61575;49.908;35.556;2023-04-06T02:11:26;11.32;;;4.35;;
73337;SDS011;61575;49.908;35.556;2023-04-06T02:14:29;10.00;;;4.43;;
73337;SDS011;61575;49.908;35.556;2023-04-06T02:17:34;10.90;;;4.40;;
73337;SDS011;61575;49.908;35.556;2023-04-06T02:20:36;13.50;;;4.65;;
73337;SDS011;61575;49.908;35.556;2023-04-06T02:23:38;12.80;;;4.50;;
73337;SDS011;61575;49.908;35.556;2023-04-06T02:26:40;11.27;;;4.10;;
73337;SDS011;61575;49.908;35.556;2023-04-06T02:29:43;10.45;;;4.32;;
73337;SDS011;61575;49.908;35.556;2023-04-06T02:32:45;10.30;;;4.23;;
73337;SDS011;61575;49.908;35.556;2023-04-06T02:35:47;13.53;;;4.80;;
73337;SDS011;61575;49.908;35.556;2023-04-06T02:38:49;9.57;;;4.40;;
73337;SDS011;61575;49.908;35.556;2023-04-06T02:41:51;13.90;;;5.00;;
73337;SDS011;61575;49.908;35.556;2023-04-06T02:44:56;11.48;;;4.07;;
73337;SDS011;61575;49.908;35.556;2023-04-06T02:48:03;11.75;;;5.45;;
73337;SDS011;61575;49.908;35.556;2023-04-06T02:51:06;10.95;;;4.80;;
73337;SDS011;61575;49.908;35.556;2023-04-06T02:54:10;18.25;;;5.10;;
73337;SDS011;61575;49.908;35.556;2023-04-06T02:57:12;11.63;;;5.15;;
73337;SDS011;61575;49.908;35.556;2023-04-06T03:00:18;14.80;;;5.78;;
73337;SDS011;61575;49.908;35.556;2023-04-06T03:03:21;10.32;;;5.10;;
73337;SDS011;61575;49.908;35.556;2023-04-06T03:06:23;9.93;;;4.30;;
73337;SDS011;61575;49.908;35.556;2023-04-06T03:09:30;11.90;;;4.15;;
73337;SDS011;61575;49.908;35.556;2023-04-06T03:12:32;9.00;;;4.55;;
73337;SDS011;61575;49.908;35.556;2023-04-06T03:15:56;12.05;;;5.22;;
73337;SDS011;61575;49.908;35.556;2023-04-06T03:19:00;11.73;;;4.53;;
73337;SDS011;61575;49.908;35.556;2023-04-06T03:22:06;9.70;;;4.63;;
73337;SDS011;61575;49.908;35.556;2023-04-06T03:25:08;11.85;;;4.63;;
73337;SDS011;61575;49.908;35.556;2023-04-06T03:28:10;10.23;;;4.25;;
73337;SDS011;61575;49.908;35.556;2023-04-06T03:31:45;13.10;;;4.22;;
73337;SDS011;61575;49.908;35.556;2023-04-06T03:34:57;11.68;;;4.80;;
73337;SDS011;61575;49.908;35.556;2023-04-06T03:37:59;11.07;;;4.67;;
73337;SDS011;61575;49.908;35.556;2023-04-06T03:41:02;10.45;;;4.60;;
73337;SDS011;61575;49.908;35.556;2023-04-06T03:44:05;12.13;;;4.65;;
73337;SDS011;61575;49.908;35.556;2023-04-06T03:47:07;10.43;;;5.07;;
73337;SDS011;61575;49.908;35.556;2023-04-06T03:50:09;16.52;;;5.20;;
73337;SDS011;61575;49.908;35.556;2023-04-06T03:53:12;10.90;;;4.90;;
73337;SDS011;61575;49.908;35.556;2023-04-06T03:56:14;10.80;;;5.18;;
73337;SDS011;61575;49.908;35.556;2023-04-06T03:59:16;11.33;;;5.17;;
73337;SDS011;61575;49.908;35.556;2023-04-06T04:02:18;14.67;;;5.40;;
73337;SDS011;61575;49.908;35.556;2023-04-06T04:05:20;14.50;;;5.20;;
73337;SDS011;61575;49.908;35.556;2023-04-06T04:08:27;12.45;;;5.30;;
73337;SDS011;61575;49.908;35.556;2023-04-06T04:11:29;15.53;;;5.30;;
73337;SDS011;61575;49.908;35.556;2023-04-06T04:14:33;11.48;;;5.07;;
73337;SDS011;61575;49.908;35.556;2023-04-06T04:17:35;12.75;;;4.65;;
73337;SDS011;61575;49.908;35.556;2023-04-06T04:20:38;10.18;;;4.50;;
73337;SDS011;61575;49.908;35.556;2023-04-06T04:23:43;11.65;;;4.80;;
73337;SDS011;61575;49.908;35.556;2023-04-06T04:26:45;11.80;;;4.93;;
73337;SDS011;61575;49.908;35.556;2023-04-06T04:29:48;9.40;;;4.50;;
73337;SDS011;61575;49.908;35.556;2023-04-06T04:32:53;10.30;;;4.68;;
73337;SDS011;61575;49.908;35.556;2023-04-06T04:35:57;9.05;;;4.60;;
73337;SDS011;61575;49.908;35.556;2023-04-06T04:39:03;8.70;;;4.80;;
73337;SDS011;61575;49.908;35.556;2023-04-06T04:42:11;7.65;;;4.50;;
73337;SDS011;61575;49.908;35.556;2023-04-06T04:45:19;9.15;;;4.40;;
73337;SDS011;61575;49.908;35.556;2023-04-06T04:48:22;10.68;;;4.63;;
73337;SDS011;61575;49.908;35.556;2023-04-06T04:51:29;10.25;;;4.90;;
73337;SDS011;61575;49.908;35.556;2023-04-06T04:55:01;11.13;;;4.57;;
73337;SDS011;61575;49.908;35.556;2023-04-06T04:58:03;9.02;;;4.45;;
73337;SDS011;61575;49.908;35.556;2023-04-06T05:01:19;11.55;;;4.38;;
73337;SDS011;61575;49.908;35.556;2023-04-06T05:04:21;11.15;;;4.18;;
73337;SDS011;61575;49.908;35.556;2023-04-06T05:07:25;10.10;;;4.63;;
73337;SDS011;61575;49.908;35.556;2023-04-06T05:10:29;9.23;;;4.30;;
73337;SDS011;61575;49.908;35.556;2023-04-06T05:13:34;16.33;;;4.65;;
73337;SDS011;61575;49.908;35.556;2023-04-06T05:16:42;17.70;;;4.53;;
73337;SDS011;61575;49.908;35.556;2023-04-06T05:19:45;14.27;;;4.15;;
73337;SDS011;61575;49.908;35.556;2023-04-06T05:22:52;14.25;;;4.35;;
73337;SDS011;61575;49.908;35.556;2023-04-06T05:25:54;11.50;;;4.47;;
73337;SDS011;61575;49.908;35.556;2023-04-06T05:28:57;11.52;;;4.28;;
73337;SDS011;61575;49.908;35.556;2023-04-06T05:32:02;10.32;;;4.50;;
73337;SDS011;61575;49.908;35.556;2023-04-06T05:35:05;10.45;;;4.50;;
73337;SDS011;61575;49.908;35.556;2023-04-06T05:38:08;11.18;;;4.00;;
73337;SDS011;61575;49.908;35.556;2023-04-06T05:41:12;11.38;;;4.10;;
73337;SDS011;61575;49.908;35.556;2023-04-06T05:44:15;12.60;;;4.47;;
73337;SDS011;61575;49.908;35.556;2023-04-06T05:47:22;12.07;;;4.10;;
73337;SDS011;61575;49.908;35.556;2023-04-06T05:50:32;10.05;;;4.00;;
73337;SDS011;61575;49.908;35.556;2023-04-06T05:56:36;11.10;;;4.20;;
73337;SDS011;61575;49.908;35.556;2023-04-06T05:59:40;13.27;;;4.40;;
73337;SDS011;61575;49.908;35.556;2023-04-06T06:02:44;11.85;;;4.32;;
73337;SDS011;61575;49.908;35.556;2023-04-06T06:05:51;11.40;;;4.50;;
73337;SDS011;61575;49.908;35.556;2023-04-06T06:09:02;13.20;;;4.35;;
73337;SDS011;61575;49.908;35.556;2023-04-06T06:12:09;10.50;;;4.47;;
73337;SDS011;61575;49.908;35.556;2023-04-06T06:15:15;8.55;;;3.92;;
73337;SDS011;61575;49.908;35.556;2023-04-06T06:18:20;10.65;;;4.22;;
73337;SDS011;61575;49.908;35.556;2023-04-06T06:21:25;11.25;;;4.40;;
73337;SDS011;61575;49.908;35.556;2023-04-06T06:24:28;13.60;;;4.57;;
73337;SDS011;61575;49.908;35.556;2023-04-06T06:27:33;16.88;;;4.40;;
73337;SDS011;61575;49.908;35.556;2023-04-06T06:30:37;13.15;;;4.85;;
73337;SDS011;61575;49.908;35.556;2023-04-06T06:33:39;11.48;;;4.30;;
73337;SDS011;61575;49.908;35.556;2023-04-06T06:36:41;10.85;;;4.63;;
73337;SDS011;61575;49.908;35.556;2023-04-06T06:39:47;14.25;;;4.07;;
73337;SDS011;61575;49.908;35.556;2023-04-06T06:42:49;13.60;;;4.85;;
73337;SDS011;61575;49.908;35.556;2023-04-06T06:46:07;9.57;;;4.15;;
73337;SDS011;61575;49.908;35.556;2023-04-06T06:49:09;9.80;;;4.00;;
73337;SDS011;61575;49.908;35.556;2023-04-06T06:52:13;12.20;;;4.45;;
73337;SDS011;61575;49.908;35.556;2023-04-06T06:55:16;10.57;;;4.22;;
73337;SDS011;61575;49.908;35.556;2023-04-06T06:58:20;12.75;;;5.00;;
73337;SDS011;61575;49.908;35.556;2023-04-06T07:01:22;15.90;;;4.93;;
73337;SDS011;61575;49.908;35.556;2023-04-06T07:04:25;13.00;;;4.18;;
73337;SDS011;61575;49.908;35.556;2023-04-06T07:07:27;14.65;;;4.90;;
73337;SDS011;61575;49.908;35.556;2023-04-06T07:10:28;11.17;;;3.87;;
73337;SDS011;61575;49.908;35.556;2023-04-06T07:13:30;13.70;;;5.10;;
73337;SDS011;61575;49.908;35.556;2023-04-06T07:16:34;17.38;;;5.00;;
73337;SDS011;61575;49.908;35.556;2023-04-06T07:19:37;16.48;;;5.40;;
73337;SDS011;61575;49.908;35.556;2023-04-06T07:22:40;13.32;;;4.80;;
73337;SDS011;61575;49.908;35.556;2023-04-06T07:25:44;11.10;;;4.22;;
73337;SDS011;61575;49.908;35.556;2023-04-06T07:28:46;11.75;;;4.60;;
73337;SDS011;61575;49.908;35.556;2023-04-06T07:31:48;12.02;;;4.50;;
73337;SDS011;61575;49.908;35.556;2023-04-06T07:34:51;13.90;;;4.70;;
73337;SDS011;61575;49.908;35.556;2023-04-06T07:37:53;15.57;;;5.10;;
73337;SDS011;61575;49.908;35.556;2023-04-06T07:40:56;10.98;;;4.38;;
73337;SDS011;61575;49.908;35.556;2023-04-06T07:43:58;10.27;;;4.30;;
73337;SDS011;61575;49.908;35.556;2023-04-06T07:47:00;15.25;;;4.75;;
73337;SDS011;61575;49.908;35.556;2023-04-06T07:50:02;13.77;;;4.43;;
73337;SDS011;61575;49.908;35.556;2023-04-06T07:53:05;10.18;;;4.18;;
73337;SDS011;61575;49.908;35.556;2023-04-06T07:56:08;15.20;;;4.35;;
73337;SDS011;61575;49.908;35.556;2023-04-06T07:59:10;16.00;;;4.63;;
73337;SDS011;61575;49.908;35.556;2023-04-06T08:02:12;14.50;;;4.13;;
73337;SDS011;61575;49.908;35.556;2023-04-06T08:05:14;16.47;;;4.30;;
73337;SDS011;61575;49.908;35.556;2023-04-06T08:08:16;10.85;;;4.40;;
73337;SDS011;61575;49.908;35.556;2023-04-06T08:11:18;13.07;;;3.73;;
73337;SDS011;61575;49.908;35.556;2023-04-06T08:14:21;10.35;;;3.92;;
73337;SDS011;61575;49.908;35.556;2023-04-06T08:17:23;10.85;;;3.75;;
73337;SDS011;61575;49.908;35.556;2023-04-06T08:20:25;10.52;;;4.13;;
73337;SDS011;61575;49.908;35.556;2023-04-06T08:23:27;12.18;;;4.07;;
73337;SDS011;61575;49.908;35.556;2023-04-06T08:26:29;10.00;;;4.00;;
73337;SDS011;61575;49.908;35.556;2023-04-06T08:29:31;10.93;;;4.03;;
73337;SDS011;61575;49.908;35.556;2023-04-06T08:32:33;12.15;;;4.03;;
73337;SDS011;61575;49.908;35.556;2023-04-06T08:35:35;12.57;;;4.47;;
73337;SDS011;61575;49.908;35.556;2023-04-06T08:38:37;15.43;;;4.38;;
73337;SDS011;61575;49.908;35.556;2023-04-06T08:41:43;10.25;;;3.85;;
73337;SDS011;61575;49.908;35.556;2023-04-06T08:44:46;12.95;;;4.38;;
73337;SDS011;61575;49.908;35.556;2023-04-06T08:47:50;15.13;;;5.32;;
73337;SDS011;61575;49.908;35.556;2023-04-06T08:50:54;14.50;;;4.38;;
73337;SDS011;61575;49.908;35.556;2023-04-06T08:53:57;14.80;;;3.90;;
73337;SDS011;61575;49.908;35.556;2023-04-06T08:57:00;13.18;;;4.25;;
73337;SDS011;61575;49.908;35.556;2023-04-06T09:00:04;15.45;;;4.32;;
73337;SDS011;61575;49.908;35.556;2023-04-06T09:03:07;14.32;;;4.82;;
73337;SDS011;61575;49.908;35.556;2023-04-06T09:06:11;16.00;;;4.90;;
73337;SDS011;61575;49.908;35.556;2023-04-06T09:09:14;18.65;;;5.38;;
73337;SDS011;61575;49.908;35.556;2023-04-06T09:12:26;19.67;;;4.30;;
73337;SDS011;61575;49.908;35.556;2023-04-06T09:15:29;17.70;;;5.20;;
73337;SDS011;61575;49.908;35.556;2023-04-06T09:18:32;16.88;;;4.60;;
73337;SDS011;61575;49.908;35.556;2023-04-06T09:21:35;16.48;;;5.57;;
73337;SDS011;61575;49.908;35.556;2023-04-06T09:27:43;26.95;;;4.78;;
73337;SDS011;61575;49.908;35.556;2023-04-06T09:30:49;20.88;;;4.28;;
73337;SDS011;61575;49.908;35.556;2023-04-06T09:33:51;25.63;;;6.32;;
73337;SDS011;61575;49.908;35.556;2023-04-06T09:36:54;37.70;;;5.07;;
73337;SDS011;61575;49.908;35.556;2023-04-06T09:40:03;33.40;;;5.28;;
73337;SDS011;61575;49.908;35.556;2023-04-06T09:43:09;32.10;;;5.95;;
73337;SDS011;61575;49.908;35.556;2023-04-06T09:46:11;31.83;;;4.60;;
73337;SDS011;61575;49.908;35.556;2023-04-06T09:49:13;27.55;;;4.30;;
73337;SDS011;61575;49.908;35.556;2023-04-06T09:58:39;19.88;;;3.97;;
73337;SDS011;61575;49.908;35.556;2023-04-06T10:01:44;25.83;;;4.70;;
73337;SDS011;61575;49.908;35.556;2023-04-06T10:04:58;31.58;;;6.00;;
73337;SDS011;61575;49.908;35.556;2023-04-06T10:08:24;23.02;;;4.38;;
73337;SDS011;61575;49.908;35.556;2023-04-06T10:11:33;23.63;;;4.68;;
73337;SDS011;61575;49.908;35.556;2023-04-06T10:14:36;29.55;;;7.03;;
73337;SDS011;61575;49.908;35.556;2023-04-06T10:17:38;24.13;;;3.92;;
73337;SDS011;61575;49.908;35.556;2023-04-06T10:24:09;20.20;;;4.07;;
73337;SDS011;61575;49.908;35.556;2023-04-06T10:27:15;17.33;;;3.67;;
73337;SDS011;61575;49.908;35.556;2023-04-06T10:30:16;17.88;;;3.60;;
73337;SDS011;61575;49.908;35.556;2023-04-06T10:33:19;18.90;;;3.50;;
73337;SDS011;61575;49.908;35.556;2023-04-06T10:36:22;16.10;;;4.20;;
73337;SDS011;61575;49.908;35.556;2023-04-06T10:39:30;22.30;;;3.95;;
73337;SDS011;61575;49.908;35.556;2023-04-06T10:42:38;17.35;;;3.97;;
73337;SDS011;61575;49.908;35.556;2023-04-06T10:45:41;17.27;;;4.75;;
73337;SDS011;61575;49.908;35.556;2023-04-06T10:48:45;14.40;;;3.78;;
73337;SDS011;61575;49.908;35.556;2023-04-06T10:51:51;16.55;;;3.90;;
73337;SDS011;61575;49.908;35.556;2023-04-06T10:54:55;24.23;;;6.47;;
73337;SDS011;61575;49.908;35.556;2023-04-06T10:57:58;19.08;;;4.18;;
73337;SDS011;61575;49.908;35.556;2023-04-06T11:01:00;15.15;;;4.55;;
73337;SDS011;61575;49.908;35.556;2023-04-06T11:04:02;15.35;;;4.82;;
73337;SDS011;61575;49.908;35.556;2023-04-06T11:07:04;13.80;;;5.57;;
73337;SDS011;61575;49.908;35.556;2023-04-06T11:10:07;15.00;;;4.72;;
73337;SDS011;61575;49.908;35.556;2023-04-06T11:13:21;17.60;;;4.95;;
73337;SDS011;61575;49.908;35.556;2023-04-06T11:16:23;13.88;;;4.45;;
73337;SDS011;61575;49.908;35.556;2023-04-06T11:19:27;13.63;;;5.03;;
73337;SDS011;61575;49.908;35.556;2023-04-06T11:22:30;10.07;;;3.20;;
73337;SDS011;61575;49.908;35.556;2023-04-06T11:25:33;18.08;;;7.68;;
73337;SDS011;61575;49.908;35.556;2023-04-06T11:28:35;9.52;;;3.55;;
73337;SDS011;61575;49.908;35.556;2023-04-06T11:31:38;9.63;;;2.95;;
73337;SDS011;61575;49.908;35.556;2023-04-06T11:34:41;6.88;;;3.45;;
73337;SDS011;61575;49.908;35.556;2023-04-06T11:37:43;7.75;;;2.90;;
73337;SDS011;61575;49.908;35.556;2023-04-06T11:40:45;5.93;;;3.20;;
73337;SDS011;61575;49.908;35.556;2023-04-06T11:43:47;7.30;;;4.63;;
73337;SDS011;61575;49.908;35.556;2023-04-06T11:46:52;5.68;;;3.10;;
73337;SDS011;61575;49.908;35.556;2023-04-06T11:49:55;7.80;;;3.85;;
73337;SDS011;61575;49.908;35.556;2023-04-06T12:06:58;7.45;;;3.22;;
73337;SDS011;61575;49.908;35.556;2023-04-06T12:10:01;6.88;;;3.30;;
73337;SDS011;61575;49.908;35.556;2023-04-06T12:13:04;6.90;;;3.78;;
73337;SDS011;61575;49.908;35.556;2023-04-06T12:16:06;6.43;;;4.03;;
73337;SDS011;61575;49.908;35.556;2023-04-06T12:19:09;10.20;;;4.57;;
73337;SDS011;61575;49.908;35.556;2023-04-06T12:22:11;16.17;;;6.80;;
73337;SDS011;61575;49.908;35.556;2023-04-06T12:25:13;10.88;;;5.30;;
73337;SDS011;61575;49.908;35.556;2023-04-06T12:28:15;13.10;;;6.87;;
73337;SDS011;61575;49.908;35.556;2023-04-06T12:31:17;19.90;;;10.85;;
73337;SDS011;61575;49.908;35.556;2023-04-06T12:34:20;21.50;;;13.88;;
73337;SDS011;61575;49.908;35.556;2023-04-06T12:37:22;13.00;;;7.23;;
73337;SDS011;61575;49.908;35.556;2023-04-06T12:40:24;21.13;;;10.43;;
73337;SDS011;61575;49.908;35.556;2023-04-06T12:43:26;46.15;;;20.52;;
73337;SDS011;61575;49.908;35.556;2023-04-06T12:46:29;38.80;;;17.77;;
73337;SDS011;61575;49.908;35.556;2023-04-06T12:49:32;40.03;;;19.00;;
73337;SDS011;61575;49.908;35.556;2023-04-06T12:52:34;11.25;;;7.43;;
73337;SDS011;61575;49.908;35.556;2023-04-06T12:58:39;13.45;;;8.02;;
73337;SDS011;61575;49.908;35.556;2023-04-06T13:01:43;16.55;;;10.00;;
73337;SDS011;61575;49.908;35.556;2023-04-06T13:04:45;21.70;;;12.00;;
73337;SDS011;61575;49.908;35.556;2023-04-06T13:07:47;19.17;;;11.52;;
73337;SDS011;61575;49.908;35.556;2023-04-06T13:10:50;15.10;;;9.48;;
73337;SDS011;61575;49.908;35.556;2023-04-06T13:13:56;11.43;;;7.72;;
73337;SDS011;61575;49.908;35.556;2023-04-06T13:16:58;12.23;;;7.80;;
73337;SDS011;61575;49.908;35.556;2023-04-06T13:20:00;22.63;;;12.80;;
73337;SDS011;61575;49.908;35.556;2023-04-06T13:23:02;22.67;;;12.93;;
73337;SDS011;61575;49.908;35.556;2023-04-06T13:26:05;22.10;;;13.85;;
73337;SDS011;61575;49.908;35.556;2023-04-06T13:29:07;39.33;;;20.60;;
73337;SDS011;61575;49.908;35.556;2023-04-06T13:32:09;19.03;;;12.30;;
73337;SDS011;61575;49.908;35.556;2023-04-06T13:35:11;16.10;;;10.60;;
73337;SDS011;61575;49.908;35.556;2023-04-06T13:38:13;14.67;;;10.47;;
73337;SDS011;61575;49.908;35.556;2023-04-06T13:44:24;18.58;;;13.85;;
73337;SDS011;61575;49.908;35.556;2023-04-06T13:47:27;17.30;;;13.10;;
73337;SDS011;61575;49.908;35.556;2023-04-06T13:50:29;17.98;;;13.05;;
73337;SDS011;61575;49.908;35.556;2023-04-06T13:53:31;19.52;;;13.48;;
73337;SDS011;61575;49.908;35.556;2023-04-06T13:56:33;18.77;;;13.33;;
73337;SDS011;61575;49.908;35.556;2023-04-06T13:59:35;19.83;;;13.50;;
73337;SDS011;61575;49.908;35.556;2023-04-06T14:02:37;19.70;;;13.85;;
73337;SDS011;61575;49.908;35.556;2023-04-06T14:08:42;13.75;;;9.95;;
73337;SDS011;61575;49.908;35.556;2023-04-06T14:11:44;15.50;;;10.10;;
73337;SDS011;61575;49.908;35.556;2023-04-06T14:14:46;16.52;;;10.65;;
73337;SDS011;61575;49.908;35.556;2023-04-06T14:17:48;15.33;;;11.40;;
73337;SDS011;61575;49.908;35.556;2023-04-06T14:23:59;16.40;;;11.18;;
73337;SDS011;61575;49.908;35.556;2023-04-06T14:27:01;16.77;;;11.27;;
73337;SDS011;61575;49.908;35.556;2023-04-06T14:30:03;16.38;;;10.90;;
73337;SDS011;61575;49.908;35.556;2023-04-06T14:33:06;14.05;;;10.88;;
73337;SDS011;61575;49.908;35.556;2023-04-06T14:39:10;18.52;;;12.35;;
73337;SDS011;61575;49.908;35.556;2023-04-06T14:42:12;26.83;;;15.60;;
73337;SDS011;61575;49.908;35.556;2023-04-06T14:45:14;16.67;;;11.07;;
73337;SDS011;61575;49.908;35.556;2023-04-06T14:48:16;18.45;;;11.48;;
73337;SDS011;61575;49.908;35.556;2023-04-06T14:51:19;39.33;;;19.90;;
73337;SDS011;61575;49.908;35.556;2023-04-06T14:54:21;42.70;;;21.00;;
73337;SDS011;61575;49.908;35.556;2023-04-06T14:57:23;29.73;;;16.53;;
73337;SDS011;61575;49.908;35.556;2023-04-06T15:00:25;18.30;;;12.37;;
73337;SDS011;61575;49.908;35.556;2023-04-06T15:03:27;19.50;;;11.60;;
73337;SDS011;61575;49.908;35.556;2023-04-06T15:06:30;11.25;;;8.40;;
73337;SDS011;61575;49.908;35.556;2023-04-06T15:12:35;19.50;;;11.57;;
73337;SDS011;61575;49.908;35.556;2023-04-06T15:15:37;21.13;;;12.82;;
73337;SDS011;61575;49.908;35.556;2023-04-06T15:18:39;10.02;;;7.75;;
73337;SDS011;61575;49.908;35.556;2023-04-06T15:21:41;11.55;;;8.05;;
73337;SDS011;61575;49.908;35.556;2023-04-06T15:24:43;13.73;;;8.90;;
73337;SDS011;61575;49.908;35.556;2023-04-06T15:27:45;13.18;;;8.55;;
73337;SDS011;61575;49.908;35.556;2023-04-06T15:30:47;11.10;;;8.63;;
73337;SDS011;61575;49.908;35.556;2023-04-06T15:33:49;11.50;;;8.40;;
73337;SDS011;61575;49.908;35.556;2023-04-06T15:36:51;11.65;;;8.95;;
73337;SDS011;61575;49.908;35.556;2023-04-06T15:39:54;10.98;;;8.57;;
73337;SDS011;61575;49.908;35.556;2023-04-06T15:42:56;10.95;;;8.40;;
73337;SDS011;61575;49.908;35.556;2023-04-06T15:45:58;12.95;;;9.10;;
73337;SDS011;61575;49.908;35.556;2023-04-06T15:49:00;17.37;;;12.57;;
73337;SDS011;61575;49.908;35.556;2023-04-06T15:52:02;30.23;;;19.53;;
73337;SDS011;61575;49.908;35.556;2023-04-06T15:55:05;20.43;;;14.57;;
73337;SDS011;61575;49.908;35.556;2023-04-06T15:58:08;13.73;;;9.52;;
73337;SDS011;61575;49.908;35.556;2023-04-06T16:01:16;24.17;;;15.43;;
73337;SDS011;61575;49.908;35.556;2023-04-06T16:04:19;14.98;;;10.82;;
73337;SDS011;61575;49.908;35.556;2023-04-06T16:07:21;15.43;;;11.40;;
73337;SDS011;61575;49.908;35.556;2023-04-06T16:10:23;13.70;;;9.70;;
73337;SDS011;61575;49.908;35.556;2023-04-06T16:13:25;12.50;;;8.97;;
73337;SDS011;61575;49.908;35.556;2023-04-06T16:16:28;12.23;;;9.27;;
73337;SDS011;61575;49.908;35.556;2023-04-06T16:19:30;11.70;;;9.20;;
73337;SDS011;61575;49.908;35.556;2023-04-06T16:22:32;22.30;;;12.60;;
73337;SDS011;61575;49.908;35.556;2023-04-06T16:25:34;15.10;;;11.87;;
73337;SDS011;61575;49.908;35.556;2023-04-06T16:28:36;33.97;;;25.17;;
73337;SDS011;61575;49.908;35.556;2023-04-06T16:31:38;31.77;;;25.57;;
73337;SDS011;61575;49.908;35.556;2023-04-06T16:34:41;18.92;;;16.27;;
73337;SDS011;61575;49.908;35.556;2023-04-06T16:37:43;47.45;;;42.25;;
73337;SDS011;61575;49.908;35.556;2023-04-06T16:40:47;31.00;;;25.00;;
73337;SDS011;61575;49.908;35.556;2023-04-06T16:43:48;35.00;;;24.40;;
73337;SDS011;61575;49.908;35.556;2023-04-06T16:46:51;75.60;;;38.90;;
73337;SDS011;61575;49.908;35.556;2023-04-06T16:49:53;38.83;;;21.13;;
73337;SDS011;61575;49.908;35.556;2023-04-06T16:53:06;21.35;;;13.95;;
73337;SDS011;61575;49.908;35.556;2023-04-06T16:56:08;18.07;;;13.33;;
73337;SDS011;61575;49.908;35.556;2023-04-06T16:59:14;16.05;;;11.43;;
73337;SDS011;61575;49.908;35.556;2023-04-06T17:02:16;15.33;;;11.67;;
73337;SDS011;61575;49.908;35.556;2023-04-06T17:05:18;15.23;;;11.27;;
73337;SDS011;61575;49.908;35.556;2023-04-06T17:08:25;16.08;;;12.50;;
73337;SDS011;61575;49.908;35.556;2023-04-06T17:11:27;25.07;;;20.30;;
73337;SDS011;61575;49.908;35.556;2023-04-06T17:14:46;16.90;;;12.13;;
73337;SDS011;61575;49.908;35.556;2023-04-06T17:17:48;18.25;;;11.90;;
73337;SDS011;61575;49.908;35.556;2023-04-06T17:20:50;20.85;;;13.75;;
73337;SDS011;61575;49.908;35.556;2023-04-06T17:23:53;22.30;;;15.13;;
73337;SDS011;61575;49.908;35.556;2023-04-06T17:26:55;147.23;;;101.88;;
73337;SDS011;61575;49.908;35.556;2023-04-06T17:29:57;77.53;;;55.08;;
73337;SDS011;61575;49.908;35.556;2023-04-06T17:33:03;64.95;;;44.92;;
73337;SDS011;61575;49.908;35.556;2023-04-06T17:36:05;61.10;;;38.20;;
73337;SDS011;61575;49.908;35.556;2023-04-06T17:39:10;33.67;;;21.67;;
73337;SDS011;61575;49.908;35.556;2023-04-06T17:42:12;22.50;;;14.30;;
73337;SDS011;61575;49.908;35.556;2023-04-06T17:45:14;32.17;;;23.65;;
73337;SDS011;61575;49.908;35.556;2023-04-06T17:48:16;38.33;;;28.90;;
73337;SDS011;61575;49.908;35.556;2023-04-06T17:51:18;39.90;;;30.02;;
73337;SDS011;61575;49.908;35.556;2023-04-06T17:54:21;49.88;;;36.10;;
73337;SDS011;61575;49.908;35.556;2023-04-06T17:57:23;39.37;;;26.53;;
73337;SDS011;61575;49.908;35.556;2023-04-06T18:00:25;14.33;;;10.40;;
73337;SDS011;61575;49.908;35.556;2023-04-06T18:06:29;39.13;;;26.02;;
73337;SDS011;61575;49.908;35.556;2023-04-06T18:09:32;97.75;;;59.85;;
73337;SDS011;61575;49.908;35.556;2023-04-06T18:12:34;30.67;;;20.10;;
73337;SDS011;61575;49.908;35.556;2023-04-06T18:15:36;18.10;;;13.40;;
73337;SDS011;61575;49.908;35.556;2023-04-06T18:21:40;16.05;;;11.60;;
73337;SDS011;61575;49.908;35.556;2023-04-06T18:24:42;13.43;;;8.73;;
73337;SDS011;61575;49.908;35.556;2023-04-06T18:27:44;14.90;;;10.10;;
73337;SDS011;61575;49.908;35.556;2023-04-06T18:30:47;13.70;;;9.07;;
73337;SDS011;61575;49.908;35.556;2023-04-06T18:33:48;26.85;;;18.20;;
73337;SDS011;61575;49.908;35.556;2023-04-06T18:36:54;15.20;;;9.82;;
73337;SDS011;61575;49.908;35.556;2023-04-06T18:39:56;16.20;;;10.95;;
73337;SDS011;61575;49.908;35.556;2023-04-06T18:42:59;27.30;;;18.17;;
73337;SDS011;61575;49.908;35.556;2023-04-06T18:46:02;17.77;;;12.18;;
73337;SDS011;61575;49.908;35.556;2023-04-06T18:49:05;16.10;;;10.73;;